sensor_id;sensor_type;location;lat;lon;timestamp;P1;durP1;ratioP1;P2;durP2;ratioP2
6193;SDS011;3130;41.564;23.280;2024-03-22T00:01:52;3.03;;;2.80;;
6193;SDS011;3130;41.564;23.280;2024-03-22T00:04:21;2.63;;;2.43;;
6193;SDS011;3130;41.564;23.280;2024-03-22T00:06:48;3.23;;;2.23;;
6193;SDS011;3130;41.564;23.280;2024-03-22T00:09:16;2.67;;;2.47;;
6193;SDS011;3130;41.564;23.280;2024-03-22T00:11:42;2.77;;;2.57;;
6193;SDS011;3130;41.564;23.280;2024-03-22T00:14:10;3.20;;;3.00;;
6193;SDS011;3130;41.564;23.280;2024-03-22T00:16:37;3.10;;;2.80;;
6193;SDS011;3130;41.564;23.280;2024-03-22T00:19:04;2.60;;;2.50;;
6193;SDS011;3130;41.564;23.280;2024-03-22T00:21:32;2.90;;;2.67;;
6193;SDS011;3130;41.564;23.280;2024-03-22T00:24:00;3.73;;;2.63;;
6193;SDS011;3130;41.564;23.280;2024-03-22T00:26:26;2.83;;;2.57;;
6193;SDS011;3130;41.564;23.280;2024-03-22T00:28:54;2.90;;;2.70;;
6193;SDS011;3130;41.564;23.280;2024-03-22T00:31:20;2.73;;;2.53;;
6193;SDS011;3130;41.564;23.280;2024-03-22T00:33:47;3.07;;;2.73;;
6193;SDS011;3130;41.564;23.280;2024-03-22T00:36:13;2.83;;;2.50;;
6193;SDS011;3130;41.564;23.280;2024-03-22T00:38:42;3.70;;;3.27;;
6193;SDS011;3130;41.564;23.280;2024-03-22T00:41:08;2.77;;;2.57;;
6193;SDS011;3130;41.564;23.280;2024-03-22T00:43:35;3.13;;;2.80;;
6193;SDS011;3130;41.564;23.280;2024-03-22T00:46:01;5.07;;;3.90;;
6193;SDS011;3130;41.564;23.280;2024-03-22T00:48:29;2.20;;;2.00;;
6193;SDS011;3130;41.564;23.280;2024-03-22T00:50:55;2.83;;;2.63;;
6193;SDS011;3130;41.564;23.280;2024-03-22T00:53:22;2.97;;;2.73;;
6193;SDS011;3130;41.564;23.280;2024-03-22T00:55:50;3.57;;;3.23;;
6193;SDS011;3130;41.564;23.280;2024-03-22T00:58:18;3.90;;;3.00;;
6193;SDS011;3130;41.564;23.280;2024-03-22T01:00:44;3.70;;;3.40;;
6193;SDS011;3130;41.564;23.280;2024-03-22T01:03:11;3.70;;;2.60;;
6193;SDS011;3130;41.564;23.280;2024-03-22T01:05:38;3.27;;;3.07;;
6193;SDS011;3130;41.564;23.280;2024-03-22T01:08:07;3.57;;;3.03;;
6193;SDS011;3130;41.564;23.280;2024-03-22T01:10:33;3.10;;;2.73;;
6193;SDS011;3130;41.564;23.280;2024-03-22T01:13:02;3.77;;;2.67;;
6193;SDS011;3130;41.564;23.280;2024-03-22T01:15:28;2.77;;;2.57;;
6193;SDS011;3130;41.564;23.280;2024-03-22T01:17:55;3.13;;;2.83;;
6193;SDS011;3130;41.564;23.280;2024-03-22T01:20:21;3.30;;;2.97;;
6193;SDS011;3130;41.564;23.280;2024-03-22T01:22:49;3.03;;;2.53;;
6193;SDS011;3130;41.564;23.280;2024-03-22T01:25:15;3.97;;;2.60;;
6193;SDS011;3130;41.564;23.280;2024-03-22T01:27:42;2.67;;;2.47;;
6193;SDS011;3130;41.564;23.280;2024-03-22T01:30:10;2.60;;;2.40;;
6193;SDS011;3130;41.564;23.280;2024-03-22T01:32:38;2.40;;;2.30;;
6193;SDS011;3130;41.564;23.280;2024-03-22T01:35:05;3.10;;;2.80;;
6193;SDS011;3130;41.564;23.280;2024-03-22T01:37:33;2.07;;;1.97;;
6193;SDS011;3130;41.564;23.280;2024-03-22T01:39:59;3.20;;;2.90;;
6193;SDS011;3130;41.564;23.280;2024-03-22T01:42:26;3.53;;;2.97;;
6193;SDS011;3130;41.564;23.280;2024-03-22T01:44:52;2.50;;;2.30;;
6193;SDS011;3130;41.564;23.280;2024-03-22T01:47:21;3.23;;;2.57;;
6193;SDS011;3130;41.564;23.280;2024-03-22T01:49:47;3.37;;;2.90;;
6193;SDS011;3130;41.564;23.280;2024-03-22T01:52:15;3.27;;;2.97;;
6193;SDS011;3130;41.564;23.280;2024-03-22T01:54:41;2.87;;;2.67;;
6193;SDS011;3130;41.564;23.280;2024-03-22T01:57:09;2.67;;;2.50;;
6193;SDS011;3130;41.564;23.280;2024-03-22T01:59:35;2.60;;;2.03;;
6193;SDS011;3130;41.564;23.280;2024-03-22T02:02:03;2.77;;;2.57;;
6193;SDS011;3130;41.564;23.280;2024-03-22T02:04:31;2.73;;;2.53;;
6193;SDS011;3130;41.564;23.280;2024-03-22T02:06:58;2.97;;;2.77;;
6193;SDS011;3130;41.564;23.280;2024-03-22T02:09:24;3.23;;;3.03;;
6193;SDS011;3130;41.564;23.280;2024-03-22T02:11:52;3.13;;;2.93;;
6193;SDS011;3130;41.564;23.280;2024-03-22T02:14:18;2.27;;;2.00;;
6193;SDS011;3130;41.564;23.280;2024-03-22T02:16:45;5.17;;;3.13;;
6193;SDS011;3130;41.564;23.280;2024-03-22T02:19:11;2.70;;;2.50;;
6193;SDS011;3130;41.564;23.280;2024-03-22T02:21:40;3.10;;;2.77;;
6193;SDS011;3130;41.564;23.280;2024-03-22T02:24:08;2.90;;;2.40;;
6193;SDS011;3130;41.564;23.280;2024-03-22T02:26:35;2.90;;;2.70;;
6193;SDS011;3130;41.564;23.280;2024-03-22T02:29:01;3.17;;;2.87;;
6193;SDS011;3130;41.564;23.280;2024-03-22T02:31:29;3.23;;;2.87;;
6193;SDS011;3130;41.564;23.280;2024-03-22T02:33:55;2.87;;;2.60;;
6193;SDS011;3130;41.564;23.280;2024-03-22T02:36:22;3.80;;;3.17;;
6193;SDS011;3130;41.564;23.280;2024-03-22T02:38:48;3.20;;;2.80;;
6193;SDS011;3130;41.564;23.280;2024-03-22T02:41:17;3.70;;;3.00;;
6193;SDS011;3130;41.564;23.280;2024-03-22T02:43:43;2.70;;;2.60;;
6193;SDS011;3130;41.564;23.280;2024-03-22T02:46:10;3.97;;;2.70;;
6193;SDS011;3130;41.564;23.280;2024-03-22T02:48:37;3.47;;;2.77;;
6193;SDS011;3130;41.564;23.280;2024-03-22T02:51:04;2.67;;;2.47;;
6193;SDS011;3130;41.564;23.280;2024-03-22T02:53:30;3.03;;;2.80;;
6193;SDS011;3130;41.564;23.280;2024-03-22T02:55:59;2.73;;;2.53;;
6193;SDS011;3130;41.564;23.280;2024-03-22T02:58:27;2.70;;;2.43;;
6193;SDS011;3130;41.564;23.280;2024-03-22T03:00:54;3.53;;;3.20;;
6193;SDS011;3130;41.564;23.280;2024-03-22T03:03:20;3.57;;;2.90;;
6193;SDS011;3130;41.564;23.280;2024-03-22T03:05:48;2.60;;;2.40;;
6193;SDS011;3130;41.564;23.280;2024-03-22T03:08:14;2.57;;;2.47;;
6193;SDS011;3130;41.564;23.280;2024-03-22T03:10:41;2.50;;;2.30;;
6193;SDS011;3130;41.564;23.280;2024-03-22T03:13:07;2.77;;;2.63;;
6193;SDS011;3130;41.564;23.280;2024-03-22T03:15:36;2.50;;;2.30;;
6193;SDS011;3130;41.564;23.280;2024-03-22T03:18:02;4.37;;;2.17;;
6193;SDS011;3130;41.564;23.280;2024-03-22T03:20:30;3.23;;;2.90;;
6193;SDS011;3130;41.564;23.280;2024-03-22T03:22:56;2.00;;;1.90;;
6193;SDS011;3130;41.564;23.280;2024-03-22T03:25:25;3.07;;;2.87;;
6193;SDS011;3130;41.564;23.280;2024-03-22T03:27:51;3.23;;;3.00;;
6193;SDS011;3130;41.564;23.280;2024-03-22T03:30:18;3.17;;;2.97;;
6193;SDS011;3130;41.564;23.280;2024-03-22T03:32:46;2.73;;;2.53;;
6193;SDS011;3130;41.564;23.280;2024-03-22T03:35:13;3.87;;;3.13;;
6193;SDS011;3130;41.564;23.280;2024-03-22T03:37:39;5.30;;;2.97;;
6193;SDS011;3130;41.564;23.280;2024-03-22T03:40:07;2.77;;;2.57;;
6193;SDS011;3130;41.564;23.280;2024-03-22T03:42:34;3.50;;;2.97;;
6193;SDS011;3130;41.564;23.280;2024-03-22T03:45:01;3.37;;;3.17;;
6193;SDS011;3130;41.564;23.280;2024-03-22T03:47:27;3.17;;;2.97;;
6193;SDS011;3130;41.564;23.280;2024-03-22T03:49:56;2.97;;;2.73;;
6193;SDS011;3130;41.564;23.280;2024-03-22T03:52:23;3.10;;;2.90;;
6193;SDS011;3130;41.564;23.280;2024-03-22T03:54:50;3.57;;;3.13;;
6193;SDS011;3130;41.564;23.280;2024-03-22T03:57:16;2.80;;;2.60;;
6193;SDS011;3130;41.564;23.280;2024-03-22T03:59:44;3.47;;;3.17;;
6193;SDS011;3130;41.564;23.280;2024-03-22T04:02:10;4.13;;;3.20;;
6193;SDS011;3130;41.564;23.280;2024-03-22T04:04:37;2.93;;;2.67;;
6193;SDS011;3130;41.564;23.280;2024-03-22T04:07:05;2.43;;;2.23;;
6193;SDS011;3130;41.564;23.280;2024-03-22T04:09:32;5.07;;;3.57;;
6193;SDS011;3130;41.564;23.280;2024-03-22T04:11:59;2.87;;;2.63;;
6193;SDS011;3130;41.564;23.280;2024-03-22T04:14:26;4.80;;;3.40;;
6193;SDS011;3130;41.564;23.280;2024-03-22T04:16:52;3.37;;;3.07;;
6193;SDS011;3130;41.564;23.280;2024-03-22T04:19:21;3.23;;;2.93;;
6193;SDS011;3130;41.564;23.280;2024-03-22T04:21:47;3.83;;;3.53;;
6193;SDS011;3130;41.564;23.280;2024-03-22T04:24:17;3.60;;;2.83;;
6193;SDS011;3130;41.564;23.280;2024-03-22T04:26:44;4.60;;;3.67;;
6193;SDS011;3130;41.564;23.280;2024-03-22T04:29:11;5.13;;;4.60;;
6193;SDS011;3130;41.564;23.280;2024-03-22T04:31:37;6.20;;;4.10;;
6193;SDS011;3130;41.564;23.280;2024-03-22T04:34:04;4.70;;;3.30;;
6193;SDS011;3130;41.564;23.280;2024-03-22T04:36:32;3.00;;;2.50;;
6193;SDS011;3130;41.564;23.280;2024-03-22T04:38:59;4.77;;;3.43;;
6193;SDS011;3130;41.564;23.280;2024-03-22T04:41:28;3.70;;;2.83;;
6193;SDS011;3130;41.564;23.280;2024-03-22T04:43:55;4.13;;;3.67;;
6193;SDS011;3130;41.564;23.280;2024-03-22T04:46:22;4.57;;;3.10;;
6193;SDS011;3130;41.564;23.280;2024-03-22T04:48:48;5.20;;;3.37;;
6193;SDS011;3130;41.564;23.280;2024-03-22T04:51:15;3.77;;;3.40;;
6193;SDS011;3130;41.564;23.280;2024-03-22T04:53:41;4.83;;;3.13;;
6193;SDS011;3130;41.564;23.280;2024-03-22T04:56:09;3.70;;;2.80;;
6193;SDS011;3130;41.564;23.280;2024-03-22T04:58:37;4.50;;;4.10;;
6193;SDS011;3130;41.564;23.280;2024-03-22T05:01:04;4.87;;;4.07;;
6193;SDS011;3130;41.564;23.280;2024-03-22T05:03:30;3.23;;;3.00;;
6193;SDS011;3130;41.564;23.280;2024-03-22T05:05:57;3.20;;;2.90;;
6193;SDS011;3130;41.564;23.280;2024-03-22T05:08:23;4.63;;;3.80;;
6193;SDS011;3130;41.564;23.280;2024-03-22T05:10:51;3.33;;;3.03;;
6193;SDS011;3130;41.564;23.280;2024-03-22T05:13:18;4.37;;;3.37;;
6193;SDS011;3130;41.564;23.280;2024-03-22T05:15:47;5.90;;;3.50;;
6193;SDS011;3130;41.564;23.280;2024-03-22T05:18:13;6.30;;;4.07;;
6193;SDS011;3130;41.564;23.280;2024-03-22T05:20:41;5.57;;;3.83;;
6193;SDS011;3130;41.564;23.280;2024-03-22T05:23:07;4.67;;;3.53;;
6193;SDS011;3130;41.564;23.280;2024-03-22T05:25:53;6.20;;;3.43;;
6193;SDS011;3130;41.564;23.280;2024-03-22T05:28:19;4.27;;;3.87;;
6193;SDS011;3130;41.564;23.280;2024-03-22T05:30:48;3.73;;;3.43;;
6193;SDS011;3130;41.564;23.280;2024-03-22T05:33:14;7.43;;;3.50;;
6193;SDS011;3130;41.564;23.280;2024-03-22T05:35:41;4.23;;;3.83;;
6193;SDS011;3130;41.564;23.280;2024-03-22T05:38:07;4.10;;;3.70;;
6193;SDS011;3130;41.564;23.280;2024-03-22T05:40:36;3.90;;;3.50;;
6193;SDS011;3130;41.564;23.280;2024-03-22T05:43:03;3.97;;;3.60;;
6193;SDS011;3130;41.564;23.280;2024-03-22T05:45:31;3.67;;;3.37;;
6193;SDS011;3130;41.564;23.280;2024-03-22T05:47:59;4.13;;;3.77;;
6193;SDS011;3130;41.564;23.280;2024-03-22T05:50:26;4.70;;;3.97;;
6193;SDS011;3130;41.564;23.280;2024-03-22T05:52:52;5.87;;;3.37;;
6193;SDS011;3130;41.564;23.280;2024-03-22T05:55:19;5.83;;;4.67;;
6193;SDS011;3130;41.564;23.280;2024-03-22T05:57:47;6.10;;;3.50;;
6193;SDS011;3130;41.564;23.280;2024-03-22T06:00:14;4.40;;;4.00;;
6193;SDS011;3130;41.564;23.280;2024-03-22T06:02:41;6.90;;;4.57;;
6193;SDS011;3130;41.564;23.280;2024-03-22T06:05:10;7.20;;;5.83;;
6193;SDS011;3130;41.564;23.280;2024-03-22T06:07:36;7.33;;;4.60;;
6193;SDS011;3130;41.564;23.280;2024-03-22T06:10:07;4.83;;;4.20;;
6193;SDS011;3130;41.564;23.280;2024-03-22T06:12:35;5.27;;;4.53;;
6193;SDS011;3130;41.564;23.280;2024-03-22T06:15:02;5.63;;;4.07;;
6193;SDS011;3130;41.564;23.280;2024-03-22T06:17:31;8.03;;;4.93;;
6193;SDS011;3130;41.564;23.280;2024-03-22T06:19:59;7.50;;;4.83;;
6193;SDS011;3130;41.564;23.280;2024-03-22T06:22:27;6.03;;;4.63;;
6193;SDS011;3130;41.564;23.280;2024-03-22T06:24:54;7.20;;;5.03;;
6193;SDS011;3130;41.564;23.280;2024-03-22T06:27:20;6.63;;;5.03;;
6193;SDS011;3130;41.564;23.280;2024-03-22T06:29:48;8.83;;;5.67;;
6193;SDS011;3130;41.564;23.280;2024-03-22T06:32:14;5.70;;;5.20;;
6193;SDS011;3130;41.564;23.280;2024-03-22T06:34:41;7.00;;;4.50;;
6193;SDS011;3130;41.564;23.280;2024-03-22T06:37:08;8.13;;;4.53;;
6193;SDS011;3130;41.564;23.280;2024-03-22T06:39:36;6.57;;;5.10;;
6193;SDS011;3130;41.564;23.280;2024-03-22T06:42:03;7.17;;;4.80;;
6193;SDS011;3130;41.564;23.280;2024-03-22T06:44:30;8.47;;;5.40;;
6193;SDS011;3130;41.564;23.280;2024-03-22T06:46:57;6.97;;;4.60;;
6193;SDS011;3130;41.564;23.280;2024-03-22T06:49:24;5.50;;;4.60;;
6193;SDS011;3130;41.564;23.280;2024-03-22T06:51:50;6.57;;;5.37;;
6193;SDS011;3130;41.564;23.280;2024-03-22T06:54:18;8.00;;;5.67;;
6193;SDS011;3130;41.564;23.280;2024-03-22T06:56:45;6.77;;;5.10;;
6193;SDS011;3130;41.564;23.280;2024-03-22T06:59:13;8.93;;;5.80;;
6193;SDS011;3130;41.564;23.280;2024-03-22T07:01:39;7.47;;;5.47;;
6193;SDS011;3130;41.564;23.280;2024-03-22T07:04:06;6.73;;;5.07;;
6193;SDS011;3130;41.564;23.280;2024-03-22T07:06:33;5.90;;;4.43;;
6193;SDS011;3130;41.564;23.280;2024-03-22T07:09:00;6.33;;;4.73;;
6193;SDS011;3130;41.564;23.280;2024-03-22T07:11:27;7.13;;;5.43;;
6193;SDS011;3130;41.564;23.280;2024-03-22T07:13:55;7.30;;;5.47;;
6193;SDS011;3130;41.564;23.280;2024-03-22T07:16:22;7.23;;;5.43;;
6193;SDS011;3130;41.564;23.280;2024-03-22T07:18:49;7.13;;;5.67;;
6193;SDS011;3130;41.564;23.280;2024-03-22T07:21:16;7.27;;;4.77;;
6193;SDS011;3130;41.564;23.280;2024-03-22T07:23:43;5.90;;;4.50;;
6193;SDS011;3130;41.564;23.280;2024-03-22T07:26:09;5.17;;;4.50;;
6193;SDS011;3130;41.564;23.280;2024-03-22T07:28:39;8.33;;;5.43;;
6193;SDS011;3130;41.564;23.280;2024-03-22T07:31:07;6.40;;;4.70;;
6193;SDS011;3130;41.564;23.280;2024-03-22T07:33:34;6.60;;;5.17;;
6193;SDS011;3130;41.564;23.280;2024-03-22T07:36:01;6.78;;;4.50;;
6193;SDS011;3130;41.564;23.280;2024-03-22T07:38:29;6.13;;;4.78;;
6193;SDS011;3130;41.564;23.280;2024-03-22T07:40:55;7.45;;;6.13;;
6193;SDS011;3130;41.564;23.280;2024-03-22T07:43:23;11.90;;;7.38;;
6193;SDS011;3130;41.564;23.280;2024-03-22T07:45:50;13.10;;;8.35;;
6193;SDS011;3130;41.564;23.280;2024-03-22T07:48:19;11.98;;;8.77;;
6193;SDS011;3130;41.564;23.280;2024-03-22T07:50:45;10.95;;;7.43;;
6193;SDS011;3130;41.564;23.280;2024-03-22T07:53:12;10.03;;;7.57;;
6193;SDS011;3130;41.564;23.280;2024-03-22T07:55:39;10.80;;;7.37;;
6193;SDS011;3130;41.564;23.280;2024-03-22T07:58:06;9.87;;;7.13;;
6193;SDS011;3130;41.564;23.280;2024-03-22T08:00:32;11.03;;;7.73;;
6193;SDS011;3130;41.564;23.280;2024-03-22T08:03:00;10.93;;;8.03;;
6193;SDS011;3130;41.564;23.280;2024-03-22T08:05:27;8.60;;;6.97;;
6193;SDS011;3130;41.564;23.280;2024-03-22T08:07:55;9.23;;;6.37;;
6193;SDS011;3130;41.564;23.280;2024-03-22T08:10:21;10.63;;;7.43;;
6193;SDS011;3130;41.564;23.280;2024-03-22T08:12:49;10.23;;;7.17;;
6193;SDS011;3130;41.564;23.280;2024-03-22T08:15:16;8.33;;;6.13;;
6193;SDS011;3130;41.564;23.280;2024-03-22T08:17:44;11.10;;;6.85;;
6193;SDS011;3130;41.564;23.280;2024-03-22T08:20:10;9.77;;;7.22;;
6193;SDS011;3130;41.564;23.280;2024-03-22T08:22:39;9.48;;;7.00;;
6193;SDS011;3130;41.564;23.280;2024-03-22T08:25:06;9.60;;;6.75;;
6193;SDS011;3130;41.564;23.280;2024-03-22T08:27:34;11.30;;;7.18;;
6193;SDS011;3130;41.564;23.280;2024-03-22T08:30:01;7.65;;;6.70;;
6193;SDS011;3130;41.564;23.280;2024-03-22T08:32:30;9.10;;;7.25;;
6193;SDS011;3130;41.564;23.280;2024-03-22T08:34:57;11.97;;;8.37;;
6193;SDS011;3130;41.564;23.280;2024-03-22T08:37:24;8.13;;;5.70;;
6193;SDS011;3130;41.564;23.280;2024-03-22T08:39:52;9.03;;;6.37;;
6193;SDS011;3130;41.564;23.280;2024-03-22T08:42:20;8.93;;;6.20;;
6193;SDS011;3130;41.564;23.280;2024-03-22T08:44:46;8.60;;;7.10;;
6193;SDS011;3130;41.564;23.280;2024-03-22T08:47:14;9.13;;;6.60;;
6193;SDS011;3130;41.564;23.280;2024-03-22T08:49:40;7.10;;;5.30;;
6193;SDS011;3130;41.564;23.280;2024-03-22T08:52:09;7.73;;;5.67;;
6193;SDS011;3130;41.564;23.280;2024-03-22T08:54:36;7.50;;;5.80;;
6193;SDS011;3130;41.564;23.280;2024-03-22T08:57:05;7.17;;;5.13;;
6193;SDS011;3130;41.564;23.280;2024-03-22T08:59:31;7.83;;;5.80;;
6193;SDS011;3130;41.564;23.280;2024-03-22T09:02:00;7.07;;;5.60;;
6193;SDS011;3130;41.564;23.280;2024-03-22T09:04:26;8.00;;;5.33;;
6193;SDS011;3130;41.564;23.280;2024-03-22T09:06:54;6.30;;;5.63;;
6193;SDS011;3130;41.564;23.280;2024-03-22T09:09:20;6.80;;;5.17;;
6193;SDS011;3130;41.564;23.280;2024-03-22T09:11:47;7.33;;;5.17;;
6193;SDS011;3130;41.564;23.280;2024-03-22T09:14:15;6.73;;;5.30;;
6193;SDS011;3130;41.564;23.280;2024-03-22T09:16:42;7.20;;;5.33;;
6193;SDS011;3130;41.564;23.280;2024-03-22T09:19:08;6.20;;;5.13;;
6193;SDS011;3130;41.564;23.280;2024-03-22T09:21:36;5.70;;;5.10;;
6193;SDS011;3130;41.564;23.280;2024-03-22T09:24:02;7.33;;;5.63;;
6193;SDS011;3130;41.564;23.280;2024-03-22T09:26:31;6.17;;;4.87;;
6193;SDS011;3130;41.564;23.280;2024-03-22T09:28:57;7.40;;;5.37;;
6193;SDS011;3130;41.564;23.280;2024-03-22T09:31:26;7.73;;;5.03;;
6193;SDS011;3130;41.564;23.280;2024-03-22T09:33:52;7.27;;;4.83;;
6193;SDS011;3130;41.564;23.280;2024-03-22T09:36:20;7.23;;;5.50;;
6193;SDS011;3130;41.564;23.280;2024-03-22T09:38:47;5.30;;;4.80;;
6193;SDS011;3130;41.564;23.280;2024-03-22T09:41:14;7.70;;;5.13;;
6193;SDS011;3130;41.564;23.280;2024-03-22T09:43:40;6.13;;;4.63;;
6193;SDS011;3130;41.564;23.280;2024-03-22T09:46:12;8.70;;;5.30;;
6193;SDS011;3130;41.564;23.280;2024-03-22T09:48:41;7.00;;;5.73;;
6193;SDS011;3130;41.564;23.280;2024-03-22T09:51:09;6.83;;;5.37;;
6193;SDS011;3130;41.564;23.280;2024-03-22T09:53:35;6.37;;;5.60;;
6193;SDS011;3130;41.564;23.280;2024-03-22T09:56:03;7.13;;;5.83;;
6193;SDS011;3130;41.564;23.280;2024-03-22T09:58:31;7.47;;;5.33;;
6193;SDS011;3130;41.564;23.280;2024-03-22T10:00:59;7.33;;;6.40;;
6193;SDS011;3130;41.564;23.280;2024-03-22T10:03:26;6.43;;;5.07;;
6193;SDS011;3130;41.564;23.280;2024-03-22T10:05:56;8.90;;;5.30;;
6193;SDS011;3130;41.564;23.280;2024-03-22T10:08:23;6.60;;;4.73;;
6193;SDS011;3130;41.564;23.280;2024-03-22T10:10:51;9.60;;;5.97;;
6193;SDS011;3130;41.564;23.280;2024-03-22T10:13:17;6.40;;;5.00;;
6193;SDS011;3130;41.564;23.280;2024-03-22T10:15:45;7.87;;;5.20;;
6193;SDS011;3130;41.564;23.280;2024-03-22T10:18:12;7.63;;;5.67;;
6193;SDS011;3130;41.564;23.280;2024-03-22T10:20:40;6.87;;;5.33;;
6193;SDS011;3130;41.564;23.280;2024-03-22T10:23:08;6.63;;;5.40;;
6193;SDS011;3130;41.564;23.280;2024-03-22T10:25:35;8.77;;;5.90;;
6193;SDS011;3130;41.564;23.280;2024-03-22T10:28:02;5.83;;;4.73;;
6193;SDS011;3130;41.564;23.280;2024-03-22T10:30:30;7.20;;;5.53;;
6193;SDS011;3130;41.564;23.280;2024-03-22T10:33:01;5.37;;;4.57;;
6193;SDS011;3130;41.564;23.280;2024-03-22T10:35:31;5.77;;;4.10;;
6193;SDS011;3130;41.564;23.280;2024-03-22T10:37:58;6.87;;;5.47;;
6193;SDS011;3130;41.564;23.280;2024-03-22T10:40:29;6.70;;;4.90;;
6193;SDS011;3130;41.564;23.280;2024-03-22T10:42:56;5.93;;;4.80;;
6193;SDS011;3130;41.564;23.280;2024-03-22T10:45:23;6.13;;;4.87;;
6193;SDS011;3130;41.564;23.280;2024-03-22T10:47:53;10.67;;;5.47;;
6193;SDS011;3130;41.564;23.280;2024-03-22T10:50:22;8.30;;;4.53;;
6193;SDS011;3130;41.564;23.280;2024-03-22T10:52:50;7.70;;;5.93;;
6193;SDS011;3130;41.564;23.280;2024-03-22T10:55:22;9.77;;;5.27;;
6193;SDS011;3130;41.564;23.280;2024-03-22T10:57:55;5.80;;;5.10;;
6193;SDS011;3130;41.564;23.280;2024-03-22T11:00:26;7.70;;;5.47;;
6193;SDS011;3130;41.564;23.280;2024-03-22T11:02:53;7.47;;;4.77;;
6193;SDS011;3130;41.564;23.280;2024-03-22T11:05:21;7.97;;;5.37;;
6193;SDS011;3130;41.564;23.280;2024-03-22T11:07:47;8.50;;;4.60;;
6193;SDS011;3130;41.564;23.280;2024-03-22T11:10:14;5.43;;;4.13;;
6193;SDS011;3130;41.564;23.280;2024-03-22T11:12:42;6.27;;;5.00;;
6193;SDS011;3130;41.564;23.280;2024-03-22T11:15:11;6.90;;;4.80;;
6193;SDS011;3130;41.564;23.280;2024-03-22T11:17:38;7.53;;;5.00;;
6193;SDS011;3130;41.564;23.280;2024-03-22T11:20:06;5.60;;;5.00;;
6193;SDS011;3130;41.564;23.280;2024-03-22T11:22:33;5.37;;;4.87;;
6193;SDS011;3130;41.564;23.280;2024-03-22T11:25:01;8.07;;;4.93;;
6193;SDS011;3130;41.564;23.280;2024-03-22T11:27:27;6.97;;;5.07;;
6193;SDS011;3130;41.564;23.280;2024-03-22T11:29:55;5.70;;;5.03;;
6193;SDS011;3130;41.564;23.280;2024-03-22T11:32:23;8.47;;;5.07;;
6193;SDS011;3130;41.564;23.280;2024-03-22T11:34:50;6.80;;;4.80;;
6193;SDS011;3130;41.564;23.280;2024-03-22T11:37:16;9.43;;;5.83;;
6193;SDS011;3130;41.564;23.280;2024-03-22T11:39:43;9.90;;;5.27;;
6193;SDS011;3130;41.564;23.280;2024-03-22T11:42:10;6.77;;;4.77;;
6193;SDS011;3130;41.564;23.280;2024-03-22T11:44:37;6.43;;;5.00;;
6193;SDS011;3130;41.564;23.280;2024-03-22T11:47:08;7.60;;;4.60;;
6193;SDS011;3130;41.564;23.280;2024-03-22T11:49:44;5.20;;;4.10;;
6193;SDS011;3130;41.564;23.280;2024-03-22T11:52:11;6.73;;;4.93;;
6193;SDS011;3130;41.564;23.280;2024-03-22T11:54:42;5.23;;;4.47;;
6193;SDS011;3130;41.564;23.280;2024-03-22T11:57:08;6.23;;;4.23;;
6193;SDS011;3130;41.564;23.280;2024-03-22T11:59:36;7.17;;;5.30;;
6193;SDS011;3130;41.564;23.280;2024-03-22T12:02:05;5.70;;;5.07;;
6193;SDS011;3130;41.564;23.280;2024-03-22T12:04:36;6.27;;;4.47;;
6193;SDS011;3130;41.564;23.280;2024-03-22T12:07:10;5.27;;;4.10;;
6193;SDS011;3130;41.564;23.280;2024-03-22T12:09:38;5.63;;;4.43;;
6193;SDS011;3130;41.564;23.280;2024-03-22T12:12:05;6.47;;;3.87;;
6193;SDS011;3130;41.564;23.280;2024-03-22T12:14:34;6.80;;;4.90;;
6193;SDS011;3130;41.564;23.280;2024-03-22T12:17:01;6.10;;;4.57;;
6193;SDS011;3130;41.564;23.280;2024-03-22T12:19:28;5.47;;;4.50;;
6193;SDS011;3130;41.564;23.280;2024-03-22T12:21:56;9.70;;;6.77;;
6193;SDS011;3130;41.564;23.280;2024-03-22T12:24:24;6.80;;;6.10;;
6193;SDS011;3130;41.564;23.280;2024-03-22T12:26:55;5.47;;;4.57;;
6193;SDS011;3130;41.564;23.280;2024-03-22T12:29:21;7.17;;;5.20;;
6193;SDS011;3130;41.564;23.280;2024-03-22T12:31:49;6.97;;;4.43;;
6193;SDS011;3130;41.564;23.280;2024-03-22T12:34:16;5.23;;;4.43;;
6193;SDS011;3130;41.564;23.280;2024-03-22T12:36:43;5.27;;;4.77;;
6193;SDS011;3130;41.564;23.280;2024-03-22T12:39:10;6.47;;;4.90;;
6193;SDS011;3130;41.564;23.280;2024-03-22T12:41:39;4.50;;;3.73;;
6193;SDS011;3130;41.564;23.280;2024-03-22T12:44:05;6.10;;;4.80;;
6193;SDS011;3130;41.564;23.280;2024-03-22T12:46:33;6.47;;;4.33;;
6193;SDS011;3130;41.564;23.280;2024-03-22T12:48:59;5.53;;;4.50;;
6193;SDS011;3130;41.564;23.280;2024-03-22T12:51:27;7.50;;;3.80;;
6193;SDS011;3130;41.564;23.280;2024-03-22T12:53:53;5.13;;;4.50;;
6193;SDS011;3130;41.564;23.280;2024-03-22T12:56:20;5.60;;;4.97;;
6193;SDS011;3130;41.564;23.280;2024-03-22T12:58:48;5.60;;;5.00;;
6193;SDS011;3130;41.564;23.280;2024-03-22T13:01:16;5.13;;;3.77;;
6193;SDS011;3130;41.564;23.280;2024-03-22T13:03:42;8.10;;;4.60;;
6193;SDS011;3130;41.564;23.280;2024-03-22T13:06:09;6.90;;;4.40;;
6193;SDS011;3130;41.564;23.280;2024-03-22T13:08:35;5.17;;;4.37;;
6193;SDS011;3130;41.564;23.280;2024-03-22T13:11:03;6.33;;;5.03;;
6193;SDS011;3130;41.564;23.280;2024-03-22T13:13:29;5.00;;;4.50;;
6193;SDS011;3130;41.564;23.280;2024-03-22T13:15:58;5.27;;;4.17;;
6193;SDS011;3130;41.564;23.280;2024-03-22T13:18:27;5.83;;;5.10;;
6193;SDS011;3130;41.564;23.280;2024-03-22T13:20:55;6.00;;;5.20;;
6193;SDS011;3130;41.564;23.280;2024-03-22T13:23:21;6.70;;;3.97;;
6193;SDS011;3130;41.564;23.280;2024-03-22T13:25:49;3.57;;;3.20;;
6193;SDS011;3130;41.564;23.280;2024-03-22T13:28:15;4.33;;;3.93;;
6193;SDS011;3130;41.564;23.280;2024-03-22T13:30:46;8.73;;;5.10;;
6193;SDS011;3130;41.564;23.280;2024-03-22T13:33:14;7.27;;;4.77;;
6193;SDS011;3130;41.564;23.280;2024-03-22T13:35:43;5.57;;;3.83;;
6193;SDS011;3130;41.564;23.280;2024-03-22T13:38:10;4.60;;;4.07;;
6193;SDS011;3130;41.564;23.280;2024-03-22T13:40:39;5.30;;;4.53;;
6193;SDS011;3130;41.564;23.280;2024-03-22T13:43:05;6.30;;;4.67;;
6193;SDS011;3130;41.564;23.280;2024-03-22T13:45:38;5.83;;;4.73;;
6193;SDS011;3130;41.564;23.280;2024-03-22T13:48:10;5.77;;;4.50;;
6193;SDS011;3130;41.564;23.280;2024-03-22T13:50:39;7.87;;;5.50;;
6193;SDS011;3130;41.564;23.280;2024-03-22T13:53:06;7.37;;;4.20;;
6193;SDS011;3130;41.564;23.280;2024-03-22T13:55:33;5.37;;;4.87;;
6193;SDS011;3130;41.564;23.280;2024-03-22T13:58:00;4.70;;;4.17;;
6193;SDS011;3130;41.564;23.280;2024-03-22T14:00:28;7.70;;;4.77;;
6193;SDS011;3130;41.564;23.280;2024-03-22T14:02:54;5.87;;;4.63;;
6193;SDS011;3130;41.564;23.280;2024-03-22T14:05:22;6.00;;;4.60;;
6193;SDS011;3130;41.564;23.280;2024-03-22T14:07:51;6.20;;;3.90;;
6193;SDS011;3130;41.564;23.280;2024-03-22T14:10:18;5.33;;;4.67;;
6193;SDS011;3130;41.564;23.280;2024-03-22T14:12:45;6.83;;;4.47;;
6193;SDS011;3130;41.564;23.280;2024-03-22T14:15:13;6.10;;;4.17;;
6193;SDS011;3130;41.564;23.280;2024-03-22T14:17:39;6.70;;;4.57;;
6193;SDS011;3130;41.564;23.280;2024-03-22T14:20:07;7.63;;;4.60;;
6193;SDS011;3130;41.564;23.280;2024-03-22T14:22:37;5.27;;;4.73;;
6193;SDS011;3130;41.564;23.280;2024-03-22T14:25:07;5.70;;;4.47;;
6193;SDS011;3130;41.564;23.280;2024-03-22T14:27:35;10.23;;;5.13;;
6193;SDS011;3130;41.564;23.280;2024-03-22T14:30:05;5.10;;;4.47;;
6193;SDS011;3130;41.564;23.280;2024-03-22T14:32:33;8.00;;;4.77;;
6193;SDS011;3130;41.564;23.280;2024-03-22T14:35:01;6.70;;;5.10;;
6193;SDS011;3130;41.564;23.280;2024-03-22T14:37:28;8.00;;;4.40;;
6193;SDS011;3130;41.564;23.280;2024-03-22T14:39:55;8.30;;;4.53;;
6193;SDS011;3130;41.564;23.280;2024-03-22T14:42:23;5.53;;;4.47;;
6193;SDS011;3130;41.564;23.280;2024-03-22T14:44:51;6.63;;;4.87;;
6193;SDS011;3130;41.564;23.280;2024-03-22T14:47:17;5.63;;;4.83;;
6193;SDS011;3130;41.564;23.280;2024-03-22T14:49:46;6.80;;;4.80;;
6193;SDS011;3130;41.564;23.280;2024-03-22T14:52:15;9.47;;;6.40;;
6193;SDS011;3130;41.564;23.280;2024-03-22T14:54:42;6.70;;;4.87;;
6193;SDS011;3130;41.564;23.280;2024-03-22T14:57:09;6.63;;;5.33;;
6193;SDS011;3130;41.564;23.280;2024-03-22T14:59:38;8.13;;;5.23;;
6193;SDS011;3130;41.564;23.280;2024-03-22T15:02:05;10.63;;;7.97;;